Time;durP1;ratioP1;P1;durP2;ratioP2;P2;SDS_P1;SDS_P2;PMS_P1;PMS_P2;Temp;Humidity;BMP_temperature;BMP_pressure;BME280_temperature;BME280_humidity;BME280_pressure;Samples;Min_cycle;Max_cycle;Signal;HPM_P1;HPM_P2
2021/04/15 00:01:44;;;;;;;5.30;1.50;;;;;;;4.90;100.00;103358.23;1784027;80;26253;-74
2021/04/15 00:04:14;;;;;;;4.27;1.73;;;;;;;4.77;100.00;103359.39;1784011;80;26794;-74
2021/04/15 00:06:45;;;;;;;4.17;1.30;;;;;;;4.75;100.00;103362.87;1784059;80;26347;-75
2021/04/15 00:09:18;;;;;;;3.63;1.53;;;;;;;4.82;100.00;103360.55;1776644;79;26801;-76
2021/04/15 00:11:48;;;;;;;4.30;1.83;;;;;;;4.68;100.00;103363.25;1803538;79;26319;-77
2021/04/15 00:14:21;;;;;;;5.83;1.57;;;;;;;4.69;100.00;103354.81;1768395;81;26241;-77
2021/04/15 00:16:51;;;;;;;3.70;1.50;;;;;;;4.67;100.00;103356.88;1803458;79;26755;-76
2021/04/15 00:19:21;;;;;;;7.03;1.70;;;;;;;4.76;100.00;103355.77;1803557;79;26240;-76
2021/04/15 00:21:51;;;;;;;7.67;1.87;;;;;;;4.73;100.00;103358.05;1803598;79;26395;-77
2021/04/15 00:24:21;;;;;;;4.23;2.20;;;;;;;4.86;100.00;103356.38;1768436;81;26707;-77
2021/04/15 00:26:51;;;;;;;5.93;2.10;;;;;;;4.92;100.00;103358.37;1803406;79;26307;-76
2021/04/15 00:29:21;;;;;;;12.07;3.33;;;;;;;4.95;100.00;103357.16;1803450;79;26310;-76
2021/04/15 00:31:51;;;;;;;8.57;2.97;;;;;;;4.85;100.00;103357.41;1803577;79;26377;-75
2021/04/15 00:34:21;;;;;;;5.77;2.53;;;;;;;4.96;100.00;103354.20;1803392;79;26845;-76
2021/04/15 00:36:51;;;;;;;7.73;3.43;;;;;;;4.93;100.00;103355.96;1803466;79;26325;-77
2021/04/15 00:39:21;;;;;;;7.47;2.70;;;;;;;4.97;100.00;103358.67;1803442;79;26236;-77
2021/04/15 00:41:51;;;;;;;5.83;2.40;;;;;;;5.00;100.00;103354.19;1803460;79;26250;-76
2021/04/15 00:44:21;;;;;;;11.93;2.53;;;;;;;5.03;100.00;103346.06;1803500;79;26713;-76
2021/04/15 00:46:56;;;;;;;3.60;2.20;;;;;;;5.16;100.00;103346.27;1803425;79;26707;-76
2021/04/15 00:49:30;;;;;;;5.97;2.43;;;;;;;4.99;100.00;103350.23;1768332;81;26288;-75
2021/04/15 00:52:04;;;;;;;3.37;1.87;;;;;;;5.08;100.00;103354.63;1803593;79;26352;-76
2021/04/15 00:54:38;;;;;;;4.80;3.07;;;;;;;4.98;100.00;103358.16;1803508;79;26232;-76
2021/04/15 00:57:13;;;;;;;5.60;2.57;;;;;;;5.01;100.00;103357.25;1768365;81;26647;-76
2021/04/15 00:59:43;;;;;;;3.90;2.40;;;;;;;4.98;100.00;103351.27;1803531;79;26286;-76
2021/04/15 01:02:16;;;;;;;9.43;3.17;;;;;;;4.92;100.00;103353.41;1803580;79;26260;-76
2021/04/15 01:04:47;;;;;;;4.17;2.50;;;;;;;4.85;100.00;103363.44;1803515;79;26341;-76
2021/04/15 01:07:17;;;;;;;4.17;2.80;;;;;;;4.87;100.00;103353.11;1803647;79;26279;-77
2021/04/15 01:09:49;;;;;;;4.53;2.40;;;;;;;4.82;100.00;103355.56;1803463;78;26277;-77
2021/04/15 01:12:35;;;;;;;5.13;2.73;;;;;;;4.71;100.00;103346.34;1803623;79;26240;-76
2021/04/15 01:15:11;;;;;;;5.00;2.50;;;;;;;4.63;100.00;103351.93;1768395;80;26334;-76
2021/04/15 01:17:46;;;;;;;7.27;3.03;;;;;;;4.49;100.00;103350.31;1803664;79;26714;-76
2021/04/15 01:20:48;;;;;;;3.03;2.53;;;;;;;4.53;100.00;103345.32;1803396;79;26727;-77
2021/04/15 01:23:23;;;;;;;6.30;2.60;;;;;;;4.43;100.00;103348.31;1803627;79;26306;-77
2021/04/15 01:26:21;;;;;;;7.67;2.70;;;;;;;4.29;100.00;103344.97;1803551;78;26252;-76
2021/04/15 01:29:15;;;;;;;3.77;2.50;;;;;;;4.36;100.00;103347.34;1803526;79;26228;-76
2021/04/15 01:32:02;;;;;;;3.77;2.70;;;;;;;4.42;100.00;103338.86;1803488;79;26360;-77
2021/04/15 01:34:39;;;;;;;6.30;3.03;;;;;;;4.27;100.00;103341.56;1803536;79;26648;-77
2021/04/15 01:37:15;;;;;;;3.83;2.63;;;;;;;4.30;100.00;103349.95;1803561;79;26262;-77
2021/04/15 01:39:48;;;;;;;5.27;2.37;;;;;;;4.20;100.00;103352.08;1768367;81;26715;-77
2021/04/15 01:42:22;;;;;;;4.50;2.30;;;;;;;4.13;100.00;103344.57;1803632;79;26367;-76
2021/04/15 01:44:56;;;;;;;7.13;2.90;;;;;;;3.97;100.00;103350.70;1803590;79;26263;-76
2021/04/15 01:47:30;;;;;;;7.80;2.40;;;;;;;3.87;100.00;103355.55;1803648;79;26682;-76
2021/04/15 01:50:03;;;;;;;5.03;2.60;;;;;;;3.87;100.00;103352.28;1768579;81;26305;-75
2021/04/15 01:52:35;;;;;;;6.47;2.60;;;;;;;3.91;100.00;103352.78;1800761;80;26313;-76
2021/04/15 01:55:11;;;;;;;6.63;2.47;;;;;;;3.97;100.00;103357.57;1768371;81;26790;-76
2021/04/15 01:57:45;;;;;;;7.07;3.17;;;;;;;4.04;100.00;103348.92;1768632;81;26838;-76
2021/04/15 02:00:20;;;;;;;4.57;3.13;;;;;;;3.84;100.00;103352.66;1803575;79;26232;-76
2021/04/15 02:02:53;;;;;;;4.30;2.67;;;;;;;3.88;100.00;103353.14;1803464;79;26369;-76
2021/04/15 02:05:26;;;;;;;5.93;2.83;;;;;;;3.93;100.00;103364.47;1803492;79;26329;-76
2021/04/15 02:08:00;;;;;;;3.93;2.60;;;;;;;3.83;100.00;103355.58;1803551;79;26283;-76
2021/04/15 02:10:30;;;;;;;4.90;2.90;;;;;;;3.75;100.00;103357.85;1803370;78;26371;-75
2021/04/15 02:13:03;;;;;;;4.90;2.60;;;;;;;3.75;100.00;103361.11;1768488;81;26683;-76
2021/04/15 02:15:41;;;;;;;4.63;2.80;;;;;;;3.66;100.00;103351.53;1803469;79;26432;-76
2021/04/15 02:18:09;;;;;;;3.03;2.47;;;;;;;3.55;100.00;103366.19;1768028;81;26315;-76
2021/04/15 02:20:38;;;;;;;4.47;2.60;;;;;;;3.57;100.00;103366.34;1768468;81;26237;-76
2021/04/15 02:23:11;;;;;;;3.70;2.80;;;;;;;3.62;100.00;103364.44;1768589;81;26245;-77
2021/04/15 02:25:45;;;;;;;6.03;2.63;;;;;;;3.51;100.00;103368.41;1802894;79;26325;-77
2021/04/15 02:28:19;;;;;;;5.77;3.10;;;;;;;3.70;100.00;103361.65;1768554;81;26303;-76
2021/04/15 02:30:52;;;;;;;4.70;2.30;;;;;;;3.35;100.00;103361.60;1800802;80;26220;-76
2021/04/15 02:33:25;;;;;;;7.77;2.60;;;;;;;3.24;100.00;103363.36;1768370;80;26245;-76
2021/04/15 02:35:58;;;;;;;7.17;2.70;;;;;;;3.12;100.00;103365.59;1800654;80;26287;-76
2021/04/15 02:38:31;;;;;;;4.37;2.47;;;;;;;3.16;100.00;103371.11;1800709;80;26415;-76
2021/04/15 02:41:04;;;;;;;3.87;2.50;;;;;;;3.17;100.00;103375.55;1768192;81;26687;-76
2021/04/15 02:43:37;;;;;;;5.87;2.20;;;;;;;3.10;100.00;103370.42;1768368;81;26245;-76
2021/04/15 02:46:11;;;;;;;4.53;2.50;;;;;;;3.15;100.00;103369.90;1768353;81;26276;-76
2021/04/15 02:48:43;;;;;;;4.13;2.47;;;;;;;3.01;100.00;103373.34;1800851;80;26376;-77
2021/04/15 02:51:17;;;;;;;3.13;2.40;;;;;;;3.04;100.00;103372.98;1768500;81;26319;-77
2021/04/15 02:53:51;;;;;;;3.37;3.03;;;;;;;3.01;100.00;103374.20;1800765;78;26237;-79
2021/04/15 02:56:24;;;;;;;3.07;2.60;;;;;;;2.86;100.00;103374.58;1800788;80;26675;-79
2021/04/15 02:58:58;;;;;;;6.63;2.77;;;;;;;2.96;100.00;103379.87;1768394;81;26233;-79
2021/04/15 03:01:32;;;;;;;6.07;2.63;;;;;;;2.92;100.00;103382.11;1768503;81;26226;-78
2021/04/15 03:04:05;;;;;;;3.83;2.67;;;;;;;2.80;100.00;103378.52;1768532;81;26331;-79
2021/04/15 03:06:36;;;;;;;3.13;2.37;;;;;;;2.81;100.00;103378.86;1803488;79;26237;-78
2021/04/15 03:09:08;;;;;;;5.93;2.73;;;;;;;2.78;100.00;103382.82;1803558;79;26323;-78
2021/04/15 03:11:42;;;;;;;4.97;2.50;;;;;;;2.79;100.00;103378.16;1803766;78;26390;-78
2021/04/15 03:14:14;;;;;;;4.17;2.27;;;;;;;2.86;100.00;103380.07;1803722;79;26303;-77
2021/04/15 03:16:47;;;;;;;5.50;3.03;;;;;;;2.88;100.00;103376.63;1803782;79;26237;-77
2021/04/15 03:19:20;;;;;;;4.90;2.57;;;;;;;2.86;100.00;103375.09;1803876;79;26279;-77
2021/04/15 03:21:54;;;;;;;5.40;2.67;;;;;;;2.86;100.00;103375.09;1803658;79;26229;-77
2021/04/15 03:24:27;;;;;;;5.70;3.03;;;;;;;2.77;100.00;103379.73;1768333;81;26308;-79
2021/04/15 03:27:00;;;;;;;7.93;2.87;;;;;;;2.65;100.00;103372.88;1802367;79;26283;-78
2021/04/15 03:29:51;;;;;;;4.37;2.23;;;;;;;2.60;100.00;103366.53;1739669;82;33632;-78
2021/04/15 03:32:24;;;;;;;4.60;2.47;;;;;;;2.54;100.00;103372.69;1735103;81;26260;-77
2021/04/15 03:34:58;;;;;;;5.30;2.77;;;;;;;2.42;100.00;103366.33;1735122;83;26772;-77
2021/04/15 03:37:31;;;;;;;3.30;2.20;;;;;;;2.60;100.00;103373.89;1734940;81;26749;-77
2021/04/15 03:40:04;;;;;;;3.73;2.50;;;;;;;2.78;100.00;103370.98;1740114;81;26801;-77
2021/04/15 03:42:39;;;;;;;3.63;2.57;;;;;;;2.59;100.00;103373.03;1735158;83;26267;-77
2021/04/15 03:45:14;;;;;;;6.33;2.90;;;;;;;2.49;100.00;103372.33;1735082;83;26674;-78
2021/04/15 03:47:48;;;;;;;7.23;2.73;;;;;;;2.68;100.00;103369.78;1740135;82;26698;-78
2021/04/15 03:50:21;;;;;;;4.47;2.40;;;;;;;2.56;100.00;103373.38;1735322;83;26354;-78
2021/04/15 03:52:55;;;;;;;4.53;2.83;;;;;;;2.49;100.00;103373.70;1740146;82;26260;-78
2021/04/15 03:55:28;;;;;;;4.43;2.40;;;;;;;2.34;100.00;103376.78;1735189;83;26260;-77
2021/04/15 03:58:02;;;;;;;3.53;2.00;;;;;;;2.35;100.00;103367.54;1740138;82;26271;-78
2021/04/15 04:00:35;;;;;;;3.93;2.30;;;;;;;2.20;100.00;103372.81;1746024;79;932626;-78
2021/04/15 04:03:08;;;;;;;4.60;2.50;;;;;;;2.20;100.00;103375.55;1803806;79;26799;-78
2021/04/15 04:05:42;;;;;;;5.20;3.17;;;;;;;2.35;100.00;103376.27;1803667;79;26256;-79
2021/04/15 04:08:15;;;;;;;4.83;2.73;;;;;;;2.37;100.00;103381.92;1803907;79;26225;-79
2021/04/15 04:10:47;;;;;;;4.50;2.50;;;;;;;2.23;100.00;103378.46;1803794;79;26257;-79
2021/04/15 04:13:25;;;;;;;4.10;2.73;;;;;;;2.24;100.00;103387.91;1803832;78;26237;-78
2021/04/15 04:15:59;;;;;;;3.90;2.57;;;;;;;2.29;100.00;103386.03;1803699;79;26242;-79
2021/04/15 04:18:34;;;;;;;3.97;2.50;;;;;;;2.12;100.00;103385.65;1803869;79;26650;-79
2021/04/15 04:21:07;;;;;;;4.50;2.33;;;;;;;2.06;100.00;103383.56;1768763;81;26660;-79
2021/04/15 04:23:41;;;;;;;5.60;2.90;;;;;;;2.02;100.00;103385.78;1800993;79;26234;-79
2021/04/15 04:26:15;;;;;;;3.07;2.47;;;;;;;2.05;100.00;103391.47;1768675;81;26330;-79
2021/04/15 04:28:47;;;;;;;3.53;2.53;;;;;;;2.09;100.00;103385.48;1801020;79;26261;-79
2021/04/15 04:31:22;;;;;;;4.07;2.50;;;;;;;2.16;100.00;103386.52;1797971;79;26232;-79
2021/04/15 04:33:54;;;;;;;4.97;2.43;;;;;;;2.08;100.00;103378.78;1768727;80;26230;-78
2021/04/15 04:36:27;;;;;;;4.40;2.70;;;;;;;1.97;100.00;103381.84;1768882;81;26229;-78
2021/04/15 04:38:59;;;;;;;3.80;2.70;;;;;;;1.99;100.00;103383.39;1768671;81;26300;-78
2021/04/15 04:41:32;;;;;;;4.77;2.90;;;;;;;2.00;100.00;103389.73;1801029;80;26320;-77
2021/04/15 04:44:05;;;;;;;4.27;2.60;;;;;;;2.14;100.00;103386.35;1799827;80;26664;-78
2021/04/15 04:46:38;;;;;;;6.67;2.43;;;;;;;2.19;100.00;103384.80;1769033;81;26249;-77
2021/04/15 04:49:13;;;;;;;2.77;2.40;;;;;;;2.05;100.00;103390.09;1768556;81;26284;-78
2021/04/15 04:51:47;;;;;;;3.17;2.50;;;;;;;2.10;100.00;103389.92;1800884;80;26240;-78
2021/04/15 04:54:19;;;;;;;3.47;2.60;;;;;;;2.16;100.00;103389.26;1768600;81;26256;-79
2021/04/15 04:56:52;;;;;;;3.83;2.57;;;;;;;2.08;100.00;103396.09;1803817;79;26752;-79
2021/04/15 04:59:25;;;;;;;3.07;2.50;;;;;;;1.95;100.00;103394.34;1768976;81;26230;-78
2021/04/15 05:01:55;;;;;;;4.97;2.50;;;;;;;2.31;100.00;103400.95;1803748;79;26743;-79
2021/04/15 05:04:28;;;;;;;3.87;2.60;;;;;;;2.21;100.00;103399.22;1803746;79;26250;-78
2021/04/15 05:07:02;;;;;;;4.07;2.63;;;;;;;2.00;100.00;103407.55;1768646;81;26366;-78
2021/04/15 05:09:36;;;;;;;2.93;2.63;;;;;;;2.10;100.00;103404.99;1803639;79;26237;-78
2021/04/15 05:12:11;;;;;;;4.67;2.20;;;;;;;2.01;100.00;103413.39;1768533;79;26277;-78
2021/04/15 05:14:41;;;;;;;4.07;2.73;;;;;;;2.13;100.00;103412.05;1803668;79;26757;-78
2021/04/15 05:17:20;;;;;;;4.40;2.60;;;;;;;1.99;100.00;103412.67;1803684;79;26685;-78
2021/04/15 05:19:52;;;;;;;4.33;2.73;;;;;;;2.03;100.00;103414.06;1803264;79;26232;-78
2021/04/15 05:22:27;;;;;;;4.63;3.07;;;;;;;2.14;100.00;103410.48;1803680;79;26224;-77
2021/04/15 05:25:01;;;;;;;3.97;2.60;;;;;;;2.04;100.00;103411.16;1768637;81;26321;-79
2021/04/15 05:27:34;;;;;;;3.77;3.13;;;;;;;2.01;100.00;103414.22;1803809;79;26325;-78
2021/04/15 05:30:18;;;;;;;5.27;2.23;;;;;;;2.07;100.00;103417.67;1768704;81;26230;-78
2021/04/15 05:32:51;;;;;;;4.50;2.73;;;;;;;1.93;100.00;103418.81;1800967;80;26391;-79
2021/04/15 05:35:25;;;;;;;4.67;2.60;;;;;;;2.00;100.00;103419.89;1800899;79;26701;-79
2021/04/15 05:37:55;;;;;;;6.40;2.67;;;;;;;2.02;100.00;103423.30;1800966;79;26322;-79
2021/04/15 05:40:26;;;;;;;8.63;3.47;;;;;;;1.92;100.00;103417.98;1800885;80;26306;-79
2021/04/15 05:43:01;;;;;;;5.47;2.70;;;;;;;2.03;100.00;103432.74;1801056;80;26240;-78
2021/04/15 05:45:33;;;;;;;6.07;3.10;;;;;;;2.09;100.00;103435.34;1800608;80;26724;-78
2021/04/15 05:48:06;;;;;;;4.10;3.30;;;;;;;2.27;100.00;103439.66;1800999;79;26241;-78
2021/04/15 05:50:39;;;;;;;4.07;2.40;;;;;;;2.21;100.00;103432.12;1768789;80;26652;-79
2021/04/15 05:53:13;;;;;;;4.90;2.83;;;;;;;2.27;100.00;103438.80;1768727;81;26350;-79
2021/04/15 05:55:46;;;;;;;3.90;3.33;;;;;;;2.53;100.00;103439.55;1804114;79;26719;-78
2021/04/15 05:58:20;;;;;;;8.13;3.50;;;;;;;2.50;100.00;103442.64;1768680;81;26238;-78
2021/04/15 06:00:54;;;;;;;7.27;3.40;;;;;;;2.48;100.00;103436.98;1801152;80;26373;-79
2021/04/15 06:03:28;;;;;;;7.47;3.47;;;;;;;2.57;100.00;103446.92;1800976;80;26326;-79
2021/04/15 06:06:02;;;;;;;5.43;3.30;;;;;;;2.68;100.00;103439.24;1801029;80;26217;-79
2021/04/15 06:08:35;;;;;;;6.77;3.73;;;;;;;2.61;100.00;103439.56;1800954;79;26307;-78
2021/04/15 06:11:11;;;;;;;5.13;3.10;;;;;;;2.82;100.00;103443.20;1768741;80;26684;-78
2021/04/15 06:13:44;;;;;;;5.93;3.30;;;;;;;2.78;100.00;103439.60;1800515;78;26470;-79
2021/04/15 06:16:19;;;;;;;5.53;3.13;;;;;;;2.91;100.00;103439.41;1801079;79;26672;-78
2021/04/15 06:18:52;;;;;;;6.83;2.80;;;;;;;2.92;100.00;103443.02;1801161;80;26779;-78
2021/04/15 06:21:26;;;;;;;5.03;2.80;;;;;;;2.88;100.00;103448.51;1768717;81;26237;-79
2021/04/15 06:23:59;;;;;;;5.00;3.00;;;;;;;3.19;100.00;103442.16;1803813;79;26275;-79
2021/04/15 06:26:32;;;;;;;7.77;2.97;;;;;;;3.43;100.00;103435.76;1768816;81;26276;-79
2021/04/15 06:29:06;;;;;;;6.30;3.00;;;;;;;3.57;100.00;103439.68;1801106;80;26287;-80
2021/04/15 06:31:39;;;;;;;6.67;3.07;;;;;;;3.45;100.00;103437.83;1768929;81;26229;-79
2021/04/15 06:34:11;;;;;;;4.53;2.87;;;;;;;3.47;100.00;103435.75;1801068;80;26276;-79
2021/04/15 06:36:44;;;;;;;6.53;2.90;;;;;;;3.82;100.00;103433.06;1768824;80;26299;-79
2021/04/15 06:39:18;;;;;;;3.53;2.50;;;;;;;3.70;100.00;103430.37;1800983;80;26312;-82
2021/04/15 06:42:13;;;;;;;5.47;2.40;;;;;;;4.17;100.00;103431.71;1801099;79;26303;-80
2021/04/15 06:45:17;;;;;;;5.50;2.63;;;;;;;4.22;100.00;103425.16;1769032;80;26313;-78
2021/04/15 06:48:18;;;;;;;4.63;2.77;;;;;;;4.26;100.00;103423.76;1768718;81;26652;-78
2021/04/15 06:50:57;;;;;;;6.50;3.37;;;;;;;4.11;100.00;103424.17;1800964;80;26323;-79
2021/04/15 06:53:35;;;;;;;4.73;2.77;;;;;;;4.50;100.00;103422.22;1796873;80;26432;-79
2021/04/15 06:56:18;;;;;;;6.13;2.97;;;;;;;4.62;100.00;103426.77;1769262;81;26326;-79
2021/04/15 06:58:59;;;;;;;4.43;2.40;;;;;;;4.83;100.00;103426.13;1768930;80;26210;-79
2021/04/15 07:02:00;;;;;;;3.67;2.67;;;;;;;4.87;100.00;103429.70;1768668;81;26295;-78
2021/04/15 07:04:33;;;;;;;5.87;3.00;;;;;;;4.80;100.00;103430.09;1800736;80;26303;-79
2021/04/15 07:07:06;;;;;;;5.43;2.30;;;;;;;5.13;100.00;103425.70;1800975;80;26335;-78
2021/04/15 07:10:15;;;;;;;4.80;2.40;;;;;;;5.08;100.00;103426.77;1801024;79;26767;-77
2021/04/15 07:13:33;;;;;;;3.73;2.40;;;;;;;5.26;100.00;103423.16;1800798;79;26728;-77
2021/04/15 07:16:12;;;;;;;3.43;2.30;;;;;;;5.57;100.00;103430.73;1768712;81;26227;-77
2021/04/15 07:19:27;;;;;;;5.43;2.23;;;;;;;5.70;100.00;103421.28;1803141;79;26754;-76
2021/04/15 07:22:23;;;;;;;4.90;2.33;;;;;;;5.91;100.00;103420.54;1675655;85;26265;-77
2021/04/15 07:25:05;;;;;;;2.67;2.10;;;;;;;6.19;100.00;103410.52;1705482;83;26263;-78
2021/04/15 07:28:04;;;;;;;4.50;2.47;;;;;;;6.20;100.00;103414.14;1705307;83;26279;-78
2021/04/15 07:30:49;;;;;;;5.30;2.60;;;;;;;6.29;100.00;103415.19;1705600;84;26376;-80
2021/04/15 07:33:29;;;;;;;3.63;2.07;;;;;;;6.56;100.00;103404.45;1705529;84;26314;-76
2021/04/15 07:36:34;;;;;;;4.40;1.90;;;;;;;6.70;100.00;103409.06;1705529;84;26322;-77
2021/04/15 07:39:15;;;;;;;5.33;2.60;;;;;;;6.81;100.00;103404.38;1683539;84;26711;-77
2021/04/15 07:41:58;;;;;;;5.07;1.93;;;;;;;6.88;100.00;103397.03;1705489;83;26780;-80
2021/04/15 07:44:39;;;;;;;4.80;2.50;;;;;;;6.95;100.00;103395.69;1705305;83;26714;-78
2021/04/15 07:47:23;;;;;;;5.90;2.33;;;;;;;7.18;100.00;103389.42;1705468;84;26318;-78
2021/04/15 07:50:10;;;;;;;2.73;2.20;;;;;;;7.28;100.00;103390.76;1705469;83;26271;-79
2021/04/15 07:53:10;;;;;;;6.23;2.40;;;;;;;7.52;100.00;103396.89;1747870;80;26731;-79
2021/04/15 07:56:02;;;;;;;3.20;1.50;;;;;;;7.64;100.00;103391.97;1800618;80;26413;-79
2021/04/15 07:58:56;;;;;;;1.93;1.40;;;;;;;7.90;100.00;103393.16;1800647;78;26280;-79
2021/04/15 08:02:01;;;;;;;2.73;1.40;;;;;;;7.89;100.00;103384.53;1799820;80;26302;-78
2021/04/15 08:05:10;;;;;;;5.40;2.00;;;;;;;8.20;100.00;103376.05;1768480;80;26248;-79
2021/04/15 08:07:49;;;;;;;4.77;1.70;;;;;;;8.36;100.00;103383.68;1768239;81;26712;-78
2021/04/15 08:10:34;;;;;;;3.63;1.70;;;;;;;8.30;100.00;103388.13;1799633;79;26249;-81
2021/04/15 08:13:38;;;;;;;2.67;1.20;;;;;;;8.41;100.00;103379.76;1799983;80;26250;-80
2021/04/15 08:16:51;;;;;;;2.73;1.30;;;;;;;8.63;100.00;103385.45;1800856;79;26262;-79
2021/04/15 08:19:47;;;;;;;2.47;1.30;;;;;;;8.33;100.00;103384.96;1800692;79;26636;-77
2021/04/15 08:22:24;;;;;;;3.70;0.93;;;;;;;8.82;100.00;103382.37;1795314;79;26826;-80
2021/04/15 08:24:59;;;;;;;4.10;2.20;;;;;;;9.18;100.00;103381.44;1800173;80;26248;-80
2021/04/15 08:27:58;;;;;;;2.50;1.10;;;;;;;9.37;100.00;103378.33;1800336;80;26283;-81
2021/04/15 08:30:45;;;;;;;3.70;1.30;;;;;;;9.21;100.00;103381.52;1801029;80;26220;-79
2021/04/15 08:33:26;;;;;;;3.47;1.07;;;;;;;9.55;100.00;103377.95;1800652;80;26319;-78
2021/04/15 08:36:38;;;;;;;2.20;1.20;;;;;;;9.62;100.00;103379.88;1800434;79;26299;-78
2021/04/15 08:39:36;;;;;;;1.93;0.70;;;;;;;9.20;100.00;103384.83;1791336;80;26300;-79
2021/04/15 08:42:18;;;;;;;1.60;0.73;;;;;;;9.19;100.00;103379.52;1796787;79;26233;-82
2021/04/15 08:45:16;;;;;;;1.17;1.07;;;;;;;9.50;100.00;103379.66;1768397;81;26307;-80
2021/04/15 08:47:56;;;;;;;2.23;1.30;;;;;;;9.48;100.00;103385.98;1800331;80;26640;-77
2021/04/15 08:50:37;;;;;;;2.87;1.07;;;;;;;8.71;100.00;103399.11;1800661;79;26298;-77
2021/04/15 08:53:14;;;;;;;2.03;1.27;;;;;;;8.60;100.00;103397.80;1768528;81;26225;-79
2021/04/15 08:55:47;;;;;;;1.67;1.10;;;;;;;8.79;100.00;103391.98;1800293;80;26242;-80
2021/04/15 08:58:44;;;;;;;2.77;1.23;;;;;;;8.98;100.00;103388.91;1800696;80;26314;-79
2021/04/15 09:01:17;;;;;;;3.87;1.20;;;;;;;10.02;100.00;103385.59;1800037;80;26307;-79
2021/04/15 09:03:51;;;;;;;2.73;1.30;;;;;;;9.93;100.00;103382.75;1800698;80;26720;-81
2021/04/15 09:06:26;;;;;;;3.47;1.20;;;;;;;9.78;100.00;103383.03;1800069;79;26367;-80
2021/04/15 09:09:12;;;;;;;3.10;1.27;;;;;;;9.94;100.00;103387.23;1800699;79;26318;-79
2021/04/15 09:11:45;;;;;;;2.40;0.97;;;;;;;9.71;100.00;103379.96;1768281;80;26685;-81
2021/04/15 09:14:25;;;;;;;2.03;1.20;;;;;;;9.37;100.00;103386.66;1800349;78;26318;-80
2021/04/15 09:17:00;;;;;;;3.40;1.20;;;;;;;9.03;100.00;103384.94;1786915;80;26229;-80
2021/04/15 09:19:41;;;;;;;2.03;0.70;;;;;;;9.19;100.00;103387.84;1786986;80;26750;-80
2021/04/15 09:22:42;;;;;;;2.87;0.97;;;;;;;9.16;100.00;103389.66;1800889;80;26695;-80
2021/04/15 09:25:17;;;;;;;2.63;1.00;;;;;;;8.91;100.00;103388.03;1789174;79;26763;-81
2021/04/15 09:27:52;;;;;;;2.20;1.03;;;;;;;8.87;100.00;103393.16;1787032;80;26700;-80
2021/04/15 09:30:37;;;;;;;3.17;1.33;;;;;;;8.87;100.00;103386.22;1797550;80;26327;-81
2021/04/15 09:33:12;;;;;;;2.07;1.37;;;;;;;8.89;100.00;103386.88;1786614;80;26680;-81
2021/04/15 09:35:56;;;;;;;2.67;1.53;;;;;;;8.68;100.00;103381.53;1796384;79;26736;-81
2021/04/15 09:39:00;;;;;;;1.63;0.93;;;;;;;9.10;100.00;103382.52;1786861;80;26724;-81
2021/04/15 09:42:08;;;;;;;1.70;0.93;;;;;;;9.12;100.00;103380.36;1766267;80;26712;-81
2021/04/15 09:45:02;;;;;;;1.73;0.93;;;;;;;9.25;100.00;103377.25;1796328;80;26291;-81
2021/04/15 09:47:40;;;;;;;2.00;0.80;;;;;;;9.02;100.00;103376.33;1778226;80;26229;-80
2021/04/15 09:50:19;;;;;;;1.37;1.00;;;;;;;8.74;100.00;103381.19;1800768;80;26741;-81
2021/04/15 09:53:11;;;;;;;1.33;0.83;;;;;;;8.59;100.00;103384.17;1797844;80;26283;-80
2021/04/15 09:56:09;;;;;;;1.83;0.90;;;;;;;8.84;100.00;103382.50;1797763;80;26342;-79
2021/04/15 09:58:43;;;;;;;2.57;0.80;;;;;;;9.12;100.00;103373.95;1786920;80;26303;-79
2021/04/15 10:01:19;;;;;;;1.90;0.77;;;;;;;9.17;100.00;103364.47;1797644;80;26228;-80
2021/04/15 10:03:54;;;;;;;1.83;0.90;;;;;;;8.95;100.00;103372.68;1797716;80;26432;-80
2021/04/15 10:06:27;;;;;;;2.30;1.00;;;;;;;8.95;100.00;103370.77;1797456;80;26702;-80
2021/04/15 10:09:06;;;;;;;2.33;1.60;;;;;;;8.95;100.00;103374.92;1797782;80;26295;-81
2021/04/15 10:11:49;;;;;;;2.63;1.03;;;;;;;8.98;100.00;103377.29;1784771;80;26645;-81
2021/04/15 10:14:27;;;;;;;2.80;1.33;;;;;;;9.02;100.00;103370.25;1800836;80;26311;-81
2021/04/15 10:17:02;;;;;;;2.93;1.17;;;;;;;9.30;100.00;103364.45;1800763;78;26347;-81
2021/04/15 10:19:49;;;;;;;3.30;1.20;;;;;;;9.67;100.00;103364.81;1797303;80;26265;-81
2021/04/15 10:22:33;;;;;;;1.93;1.30;;;;;;;9.64;100.00;103358.30;1797269;79;26696;-81
2021/04/15 10:25:07;;;;;;;2.00;1.10;;;;;;;9.75;100.00;103361.80;1786707;80;26295;-81
2021/04/15 10:28:39;;;;;;;2.37;1.30;;;;;;;9.72;100.00;103351.97;1786838;80;26229;-80
2021/04/15 10:31:59;;;;;;;1.50;1.03;;;;;;;9.70;100.00;103349.97;1717418;83;26253;-80
2021/04/15 10:34:49;;;;;;;4.10;1.30;;;;;;;9.82;100.00;103337.10;1641684;85;26813;-81
2021/04/15 10:37:29;;;;;;;3.23;1.03;;;;;;;10.84;100.00;103327.73;1641584;87;26360;-80
2021/04/15 10:40:28;;;;;;;3.47;0.80;;;;;;;10.24;100.00;103335.64;1648679;86;26376;-80
2021/04/15 10:43:50;;;;;;;1.80;0.80;;;;;;;10.37;100.00;103336.09;1652457;85;26300;-80
2021/04/15 10:46:39;;;;;;;1.10;0.90;;;;;;;10.14;100.00;103335.80;1651020;86;26786;-79
2021/04/15 10:49:17;;;;;;;3.10;0.97;;;;;;;10.88;100.00;103324.27;1653141;86;26787;-80
2021/04/15 10:51:51;;;;;;;1.60;0.90;;;;;;;11.18;100.00;103317.47;1653120;85;26293;-80
2021/04/15 10:54:25;;;;;;;2.87;0.90;;;;;;;10.88;100.00;103317.32;1653084;85;26407;-81
2021/04/15 10:57:00;;;;;;;2.50;1.10;;;;;;;10.54;100.00;103329.46;1653175;87;26396;-81
2021/04/15 10:59:35;;;;;;;0.77;0.63;;;;;;;10.87;100.00;103322.56;1653268;87;26887;-80
2021/04/15 11:02:24;;;;;;;1.97;1.20;;;;;;;10.92;100.00;103315.78;1687389;84;26704;-77
2021/04/15 11:04:56;;;;;;;7.80;1.73;;;;;;;11.26;100.00;103307.42;1716627;80;26308;-81
2021/04/15 11:07:31;;;;;;;1.50;0.70;;;;;;;11.37;100.00;103308.08;1797611;80;26291;-81
2021/04/15 11:10:10;;;;;;;3.23;1.10;;;;;;;11.12;100.00;103304.49;1797567;80;26358;-81
2021/04/15 11:12:40;;;;;;;2.03;1.07;;;;;;;11.40;100.00;103305.36;1797753;80;26300;-80
2021/04/15 11:15:18;;;;;;;5.73;1.40;;;;;;;11.22;100.00;103309.51;1797705;80;26332;-81
2021/04/15 11:17:49;;;;;;;2.77;1.00;;;;;;;11.14;100.00;103305.09;1786830;80;26233;-81
2021/04/15 11:20:29;;;;;;;2.77;0.93;;;;;;;10.92;100.00;103301.02;1800922;80;26277;-80
2021/04/15 11:23:06;;;;;;;1.37;1.07;;;;;;;11.08;100.00;103298.22;1786802;80;26291;-80
2021/04/15 11:25:40;;;;;;;2.27;1.13;;;;;;;11.38;100.00;103296.41;1800778;80;26245;-80
2021/04/15 11:28:19;;;;;;;1.90;0.80;;;;;;;11.26;100.00;103299.08;1786792;80;26735;-80
2021/04/15 11:30:52;;;;;;;2.07;1.20;;;;;;;11.44;100.00;103298.25;1797227;80;26323;-80
2021/04/15 11:33:36;;;;;;;1.57;0.90;;;;;;;11.48;100.00;103287.49;1786873;80;26303;-79
2021/04/15 11:36:13;;;;;;;3.17;1.10;;;;;;;11.72;100.00;103290.22;1800651;80;26716;-80
2021/04/15 11:38:45;;;;;;;2.53;1.53;;;;;;;11.77;100.00;103283.41;1786872;80;26665;-79
2021/04/15 11:41:21;;;;;;;1.57;1.20;;;;;;;11.33;100.00;103290.14;1797663;80;26722;-78
2021/04/15 11:43:55;;;;;;;1.43;1.00;;;;;;;11.42;100.00;103284.55;1797811;80;26774;-80
2021/04/15 11:46:31;;;;;;;2.13;1.10;;;;;;;11.49;100.00;103285.03;1785191;80;26241;-80
2021/04/15 11:49:11;;;;;;;1.73;0.90;;;;;;;10.97;100.00;103285.90;1786555;80;26301;-80
2021/04/15 11:51:51;;;;;;;2.10;1.00;;;;;;;11.23;100.00;103279.22;1797850;80;26272;-80
2021/04/15 11:54:28;;;;;;;2.47;1.50;;;;;;;11.54;100.00;103268.48;1783915;80;26250;-80
2021/04/15 11:57:03;;;;;;;2.90;1.43;;;;;;;12.18;100.00;103268.71;1800928;80;26327;-80
2021/04/15 11:59:34;;;;;;;1.43;0.80;;;;;;;12.17;100.00;103266.14;1793241;79;26435;-80
2021/04/15 12:02:18;;;;;;;2.40;1.10;;;;;;;11.76;100.00;103263.63;1797651;80;26711;-80
2021/04/15 12:04:48;;;;;;;2.63;1.50;;;;;;;12.23;100.00;103258.25;1797568;80;26238;-78
2021/04/15 12:07:24;;;;;;;2.73;1.57;;;;;;;11.88;100.00;103268.39;1797830;80;26268;-78
2021/04/15 12:09:56;;;;;;;1.33;1.10;;;;;;;11.57;100.00;103263.83;1797580;80;26253;-78
2021/04/15 12:12:31;;;;;;;2.80;1.20;;;;;;;11.41;100.00;103270.35;1797666;80;26714;-77
2021/04/15 12:15:02;;;;;;;1.57;1.20;;;;;;;11.13;100.00;103267.22;1797668;80;26261;-78
2021/04/15 12:17:36;;;;;;;1.83;1.00;;;;;;;11.21;100.00;103266.92;1797638;78;26288;-78